sensor_id;sensor_type;location;lat;lon;timestamp;P1;durP1;ratioP1;P2;durP2;ratioP2
7410;SDS011;3747;48.628;9.058;2023-10-13T00:01:01;5.50;;;3.00;;
7410;SDS011;3747;48.628;9.058;2023-10-13T00:03:31;6.60;;;2.90;;
7410;SDS011;3747;48.628;9.058;2023-10-13T00:05:58;5.53;;;3.10;;
7410;SDS011;3747;48.628;9.058;2023-10-13T00:08:27;6.07;;;3.50;;
7410;SDS011;3747;48.628;9.058;2023-10-13T00:10:55;4.77;;;3.10;;
7410;SDS011;3747;48.628;9.058;2023-10-13T00:13:26;5.53;;;3.23;;
7410;SDS011;3747;48.628;9.058;2023-10-13T00:15:54;7.10;;;2.80;;
7410;SDS011;3747;48.628;9.058;2023-10-13T00:18:24;6.77;;;3.47;;
7410;SDS011;3747;48.628;9.058;2023-10-13T00:20:52;5.60;;;3.10;;
7410;SDS011;3747;48.628;9.058;2023-10-13T00:23:21;4.90;;;3.03;;
7410;SDS011;3747;48.628;9.058;2023-10-13T00:25:51;5.40;;;2.47;;
7410;SDS011;3747;48.628;9.058;2023-10-13T00:28:24;7.23;;;3.00;;
7410;SDS011;3747;48.628;9.058;2023-10-13T00:30:53;6.03;;;3.00;;
7410;SDS011;3747;48.628;9.058;2023-10-13T00:33:26;6.13;;;2.90;;
7410;SDS011;3747;48.628;9.058;2023-10-13T00:35:53;5.50;;;3.33;;
7410;SDS011;3747;48.628;9.058;2023-10-13T00:38:23;5.33;;;3.10;;
7410;SDS011;3747;48.628;9.058;2023-10-13T00:40:50;6.30;;;3.10;;
7410;SDS011;3747;48.628;9.058;2023-10-13T00:43:19;6.47;;;3.03;;
7410;SDS011;3747;48.628;9.058;2023-10-13T00:46:01;5.07;;;2.90;;
7410;SDS011;3747;48.628;9.058;2023-10-13T00:48:35;6.80;;;3.33;;
7410;SDS011;3747;48.628;9.058;2023-10-13T00:51:08;5.63;;;3.50;;
7410;SDS011;3747;48.628;9.058;2023-10-13T00:53:43;5.67;;;2.90;;
7410;SDS011;3747;48.628;9.058;2023-10-13T00:56:12;5.40;;;3.27;;
7410;SDS011;3747;48.628;9.058;2023-10-13T00:58:44;7.50;;;2.70;;
7410;SDS011;3747;48.628;9.058;2023-10-13T01:01:12;4.77;;;3.03;;
7410;SDS011;3747;48.628;9.058;2023-10-13T01:03:47;9.80;;;3.20;;
7410;SDS011;3747;48.628;9.058;2023-10-13T01:06:16;5.73;;;3.17;;
7410;SDS011;3747;48.628;9.058;2023-10-13T01:08:43;5.60;;;2.90;;
7410;SDS011;3747;48.628;9.058;2023-10-13T01:11:15;5.47;;;3.23;;
7410;SDS011;3747;48.628;9.058;2023-10-13T01:13:42;5.03;;;3.57;;
7410;SDS011;3747;48.628;9.058;2023-10-13T01:16:09;5.57;;;2.93;;
7410;SDS011;3747;48.628;9.058;2023-10-13T01:18:37;4.57;;;2.80;;
7410;SDS011;3747;48.628;9.058;2023-10-13T01:21:13;6.10;;;3.07;;
7410;SDS011;3747;48.628;9.058;2023-10-13T01:23:42;6.13;;;3.00;;
7410;SDS011;3747;48.628;9.058;2023-10-13T01:26:11;5.43;;;3.13;;
7410;SDS011;3747;48.628;9.058;2023-10-13T01:28:38;6.60;;;3.43;;
7410;SDS011;3747;48.628;9.058;2023-10-13T01:31:11;6.00;;;3.50;;
7410;SDS011;3747;48.628;9.058;2023-10-13T01:33:38;6.30;;;3.30;;
7410;SDS011;3747;48.628;9.058;2023-10-13T01:36:05;6.20;;;2.93;;
7410;SDS011;3747;48.628;9.058;2023-10-13T01:38:35;9.03;;;3.57;;
7410;SDS011;3747;48.628;9.058;2023-10-13T01:41:05;7.80;;;3.10;;
7410;SDS011;3747;48.628;9.058;2023-10-13T01:43:33;3.97;;;3.30;;
7410;SDS011;3747;48.628;9.058;2023-10-13T01:45:59;7.17;;;3.33;;
7410;SDS011;3747;48.628;9.058;2023-10-13T01:48:28;6.80;;;3.00;;
7410;SDS011;3747;48.628;9.058;2023-10-13T01:50:57;4.87;;;2.87;;
7410;SDS011;3747;48.628;9.058;2023-10-13T01:53:25;5.63;;;3.23;;
7410;SDS011;3747;48.628;9.058;2023-10-13T01:55:54;6.00;;;2.63;;
7410;SDS011;3747;48.628;9.058;2023-10-13T01:58:24;5.80;;;2.67;;
7410;SDS011;3747;48.628;9.058;2023-10-13T02:00:51;7.30;;;3.40;;
7410;SDS011;3747;48.628;9.058;2023-10-13T02:03:18;6.47;;;3.30;;
7410;SDS011;3747;48.628;9.058;2023-10-13T02:05:46;4.87;;;3.30;;
7410;SDS011;3747;48.628;9.058;2023-10-13T02:08:14;6.90;;;2.97;;
7410;SDS011;3747;48.628;9.058;2023-10-13T02:10:44;7.07;;;2.90;;
7410;SDS011;3747;48.628;9.058;2023-10-13T02:13:13;4.87;;;3.27;;
7410;SDS011;3747;48.628;9.058;2023-10-13T02:15:44;8.40;;;3.63;;
7410;SDS011;3747;48.628;9.058;2023-10-13T02:18:13;4.63;;;3.20;;
7410;SDS011;3747;48.628;9.058;2023-10-13T02:20:45;6.17;;;3.33;;
7410;SDS011;3747;48.628;9.058;2023-10-13T02:23:19;4.93;;;3.07;;
7410;SDS011;3747;48.628;9.058;2023-10-13T02:25:45;6.17;;;2.80;;
7410;SDS011;3747;48.628;9.058;2023-10-13T02:28:12;5.63;;;3.30;;
7410;SDS011;3747;48.628;9.058;2023-10-13T02:30:48;5.20;;;2.80;;
7410;SDS011;3747;48.628;9.058;2023-10-13T02:33:15;4.63;;;2.83;;
7410;SDS011;3747;48.628;9.058;2023-10-13T02:35:47;5.43;;;3.27;;
7410;SDS011;3747;48.628;9.058;2023-10-13T02:38:18;6.17;;;3.37;;
7410;SDS011;3747;48.628;9.058;2023-10-13T02:40:52;4.03;;;3.00;;
7410;SDS011;3747;48.628;9.058;2023-10-13T02:43:19;7.27;;;3.40;;
7410;SDS011;3747;48.628;9.058;2023-10-13T02:45:52;3.60;;;2.87;;
7410;SDS011;3747;48.628;9.058;2023-10-13T02:48:23;5.33;;;2.87;;
7410;SDS011;3747;48.628;9.058;2023-10-13T02:50:55;8.93;;;4.23;;
7410;SDS011;3747;48.628;9.058;2023-10-13T02:53:26;6.53;;;3.47;;
7410;SDS011;3747;48.628;9.058;2023-10-13T02:55:53;6.07;;;3.30;;
7410;SDS011;3747;48.628;9.058;2023-10-13T02:58:23;9.73;;;3.40;;
7410;SDS011;3747;48.628;9.058;2023-10-13T03:01:04;3.87;;;3.40;;
7410;SDS011;3747;48.628;9.058;2023-10-13T03:03:42;4.70;;;3.23;;
7410;SDS011;3747;48.628;9.058;2023-10-13T03:06:08;7.30;;;3.57;;
7410;SDS011;3747;48.628;9.058;2023-10-13T03:08:36;9.37;;;3.37;;
7410;SDS011;3747;48.628;9.058;2023-10-13T03:11:02;6.60;;;3.43;;
7410;SDS011;3747;48.628;9.058;2023-10-13T03:13:30;4.50;;;3.47;;
7410;SDS011;3747;48.628;9.058;2023-10-13T03:15:58;7.20;;;3.37;;
7410;SDS011;3747;48.628;9.058;2023-10-13T03:18:25;5.93;;;2.93;;
7410;SDS011;3747;48.628;9.058;2023-10-13T03:20:52;5.87;;;3.50;;
7410;SDS011;3747;48.628;9.058;2023-10-13T03:23:22;9.80;;;4.60;;
7410;SDS011;3747;48.628;9.058;2023-10-13T03:25:50;3.97;;;3.13;;
7410;SDS011;3747;48.628;9.058;2023-10-13T03:28:20;5.03;;;3.27;;
7410;SDS011;3747;48.628;9.058;2023-10-13T03:30:50;9.37;;;3.13;;
7410;SDS011;3747;48.628;9.058;2023-10-13T03:33:18;7.13;;;3.30;;
7410;SDS011;3747;48.628;9.058;2023-10-13T03:35:52;7.27;;;3.10;;
7410;SDS011;3747;48.628;9.058;2023-10-13T03:38:19;4.97;;;3.27;;
7410;SDS011;3747;48.628;9.058;2023-10-13T03:40:52;9.53;;;3.23;;
7410;SDS011;3747;48.628;9.058;2023-10-13T03:43:32;5.00;;;2.97;;
7410;SDS011;3747;48.628;9.058;2023-10-13T03:46:10;3.67;;;3.07;;
7410;SDS011;3747;48.628;9.058;2023-10-13T03:48:36;7.53;;;3.40;;
7410;SDS011;3747;48.628;9.058;2023-10-13T03:51:18;7.10;;;3.53;;
7410;SDS011;3747;48.628;9.058;2023-10-13T03:53:45;6.90;;;3.60;;
7410;SDS011;3747;48.628;9.058;2023-10-13T03:56:18;4.80;;;3.10;;
7410;SDS011;3747;48.628;9.058;2023-10-13T03:58:52;5.53;;;3.60;;
7410;SDS011;3747;48.628;9.058;2023-10-13T04:01:22;7.00;;;3.70;;
7410;SDS011;3747;48.628;9.058;2023-10-13T04:03:56;6.53;;;3.00;;
7410;SDS011;3747;48.628;9.058;2023-10-13T04:06:29;8.37;;;3.60;;
7410;SDS011;3747;48.628;9.058;2023-10-13T04:09:13;9.60;;;3.73;;
7410;SDS011;3747;48.628;9.058;2023-10-13T04:11:56;5.07;;;2.93;;
7410;SDS011;3747;48.628;9.058;2023-10-13T04:14:42;9.40;;;3.53;;
7410;SDS011;3747;48.628;9.058;2023-10-13T04:17:26;5.17;;;3.17;;
7410;SDS011;3747;48.628;9.058;2023-10-13T04:19:54;6.03;;;3.23;;
7410;SDS011;3747;48.628;9.058;2023-10-13T04:22:38;4.43;;;3.57;;
7410;SDS011;3747;48.628;9.058;2023-10-13T04:25:20;6.87;;;3.43;;
7410;SDS011;3747;48.628;9.058;2023-10-13T04:28:17;5.47;;;4.00;;
7410;SDS011;3747;48.628;9.058;2023-10-13T04:30:59;7.03;;;3.50;;
7410;SDS011;3747;48.628;9.058;2023-10-13T04:33:37;9.93;;;3.60;;
7410;SDS011;3747;48.628;9.058;2023-10-13T04:36:16;4.57;;;3.07;;
7410;SDS011;3747;48.628;9.058;2023-10-13T04:39:02;7.60;;;3.90;;
7410;SDS011;3747;48.628;9.058;2023-10-13T04:41:35;7.27;;;3.60;;
7410;SDS011;3747;48.628;9.058;2023-10-13T04:44:04;7.23;;;3.60;;
7410;SDS011;3747;48.628;9.058;2023-10-13T04:46:46;6.97;;;3.50;;
7410;SDS011;3747;48.628;9.058;2023-10-13T04:49:33;6.23;;;3.80;;
7410;SDS011;3747;48.628;9.058;2023-10-13T04:52:14;5.40;;;3.67;;
7410;SDS011;3747;48.628;9.058;2023-10-13T04:55:05;7.07;;;3.33;;
7410;SDS011;3747;48.628;9.058;2023-10-13T04:57:58;6.87;;;3.13;;
7410;SDS011;3747;48.628;9.058;2023-10-13T05:00:39;7.17;;;3.77;;
7410;SDS011;3747;48.628;9.058;2023-10-13T05:03:21;6.63;;;3.60;;
7410;SDS011;3747;48.628;9.058;2023-10-13T05:06:17;5.27;;;3.77;;
7410;SDS011;3747;48.628;9.058;2023-10-13T05:09:02;6.07;;;3.47;;
7410;SDS011;3747;48.628;9.058;2023-10-13T05:12:03;8.50;;;4.97;;
7410;SDS011;3747;48.628;9.058;2023-10-13T05:14:47;6.37;;;3.80;;
7410;SDS011;3747;48.628;9.058;2023-10-13T05:17:31;5.33;;;3.63;;
7410;SDS011;3747;48.628;9.058;2023-10-13T05:20:15;9.53;;;4.13;;
7410;SDS011;3747;48.628;9.058;2023-10-13T05:22:59;9.80;;;4.20;;
7410;SDS011;3747;48.628;9.058;2023-10-13T05:25:55;6.53;;;3.67;;
7410;SDS011;3747;48.628;9.058;2023-10-13T05:28:40;7.03;;;4.23;;
7410;SDS011;3747;48.628;9.058;2023-10-13T05:31:25;4.43;;;3.30;;
7410;SDS011;3747;48.628;9.058;2023-10-13T05:34:09;5.17;;;3.63;;
7410;SDS011;3747;48.628;9.058;2023-10-13T05:36:53;7.60;;;3.57;;
7410;SDS011;3747;48.628;9.058;2023-10-13T05:39:39;6.33;;;3.37;;
7410;SDS011;3747;48.628;9.058;2023-10-13T05:42:23;7.50;;;3.73;;
7410;SDS011;3747;48.628;9.058;2023-10-13T05:45:09;6.70;;;3.13;;
7410;SDS011;3747;48.628;9.058;2023-10-13T05:48:19;7.33;;;3.70;;
7410;SDS011;3747;48.628;9.058;2023-10-13T05:50:59;6.03;;;3.77;;
7410;SDS011;3747;48.628;9.058;2023-10-13T05:53:40;8.10;;;4.47;;
7410;SDS011;3747;48.628;9.058;2023-10-13T05:56:24;5.97;;;3.70;;
7410;SDS011;3747;48.628;9.058;2023-10-13T05:59:13;7.37;;;3.90;;
7410;SDS011;3747;48.628;9.058;2023-10-13T06:02:08;5.97;;;4.53;;
7410;SDS011;3747;48.628;9.058;2023-10-13T06:05:07;5.53;;;3.77;;
7410;SDS011;3747;48.628;9.058;2023-10-13T06:07:53;4.67;;;3.43;;
7410;SDS011;3747;48.628;9.058;2023-10-13T06:10:37;5.97;;;4.13;;
7410;SDS011;3747;48.628;9.058;2023-10-13T06:13:22;5.33;;;3.50;;
7410;SDS011;3747;48.628;9.058;2023-10-13T06:16:06;4.97;;;3.30;;
7410;SDS011;3747;48.628;9.058;2023-10-13T06:18:51;5.90;;;3.67;;
7410;SDS011;3747;48.628;9.058;2023-10-13T06:21:36;5.43;;;3.37;;
7410;SDS011;3747;48.628;9.058;2023-10-13T06:24:20;5.57;;;3.13;;
7410;SDS011;3747;48.628;9.058;2023-10-13T06:27:04;8.47;;;3.83;;
7410;SDS011;3747;48.628;9.058;2023-10-13T06:29:48;6.83;;;3.10;;
7410;SDS011;3747;48.628;9.058;2023-10-13T06:32:15;9.80;;;3.80;;
7410;SDS011;3747;48.628;9.058;2023-10-13T06:34:43;6.43;;;3.57;;
7410;SDS011;3747;48.628;9.058;2023-10-13T06:37:10;6.13;;;3.57;;
7410;SDS011;3747;48.628;9.058;2023-10-13T06:39:48;7.67;;;3.33;;
7410;SDS011;3747;48.628;9.058;2023-10-13T06:42:15;5.50;;;3.30;;
7410;SDS011;3747;48.628;9.058;2023-10-13T06:44:44;6.07;;;3.37;;
7410;SDS011;3747;48.628;9.058;2023-10-13T06:47:11;5.30;;;3.17;;
7410;SDS011;3747;48.628;9.058;2023-10-13T06:49:39;6.53;;;3.23;;
7410;SDS011;3747;48.628;9.058;2023-10-13T06:52:09;5.97;;;3.23;;
7410;SDS011;3747;48.628;9.058;2023-10-13T06:54:36;5.27;;;3.20;;
7410;SDS011;3747;48.628;9.058;2023-10-13T06:57:04;9.33;;;3.23;;
7410;SDS011;3747;48.628;9.058;2023-10-13T06:59:32;5.90;;;3.27;;
7410;SDS011;3747;48.628;9.058;2023-10-13T07:02:00;6.57;;;3.00;;
7410;SDS011;3747;48.628;9.058;2023-10-13T07:04:30;7.23;;;2.90;;
7410;SDS011;3747;48.628;9.058;2023-10-13T07:06:57;4.93;;;2.83;;
7410;SDS011;3747;48.628;9.058;2023-10-13T07:09:31;6.45;;;3.08;;
7410;SDS011;3747;48.628;9.058;2023-10-13T07:12:17;6.94;;;2.68;;
7410;SDS011;3747;48.628;9.058;2023-10-13T07:17:44;5.80;;;2.93;;
7410;SDS011;3747;48.628;9.058;2023-10-13T07:20:11;7.80;;;2.60;;
7410;SDS011;3747;48.628;9.058;2023-10-13T07:22:48;9.23;;;3.23;;
7410;SDS011;3747;48.628;9.058;2023-10-13T07:25:23;15.23;;;3.33;;
7410;SDS011;3747;48.628;9.058;2023-10-13T07:27:56;29.70;;;5.10;;
7410;SDS011;3747;48.628;9.058;2023-10-13T07:30:23;5.87;;;3.27;;
7410;SDS011;3747;48.628;9.058;2023-10-13T07:32:52;5.70;;;3.20;;
7410;SDS011;3747;48.628;9.058;2023-10-13T07:35:22;4.63;;;2.87;;
7410;SDS011;3747;48.628;9.058;2023-10-13T07:37:51;6.20;;;3.27;;
7410;SDS011;3747;48.628;9.058;2023-10-13T07:40:20;5.87;;;3.33;;
7410;SDS011;3747;48.628;9.058;2023-10-13T07:43:17;4.88;;;2.96;;
7410;SDS011;3747;48.628;9.058;2023-10-13T07:45:47;6.60;;;3.27;;
7410;SDS011;3747;48.628;9.058;2023-10-13T07:51:16;5.53;;;3.17;;
7410;SDS011;3747;48.628;9.058;2023-10-13T07:53:43;3.63;;;3.33;;
7410;SDS011;3747;48.628;9.058;2023-10-13T07:56:14;3.77;;;2.80;;
7410;SDS011;3747;48.628;9.058;2023-10-13T07:58:46;4.73;;;3.23;;
7410;SDS011;3747;48.628;9.058;2023-10-13T08:01:17;4.57;;;2.87;;
7410;SDS011;3747;48.628;9.058;2023-10-13T08:03:44;7.40;;;2.70;;
7410;SDS011;3747;48.628;9.058;2023-10-13T08:06:12;9.20;;;3.30;;
7410;SDS011;3747;48.628;9.058;2023-10-13T08:08:46;7.13;;;2.97;;
7410;SDS011;3747;48.628;9.058;2023-10-13T08:11:18;9.93;;;3.40;;
7410;SDS011;3747;48.628;9.058;2023-10-13T08:13:53;5.87;;;3.27;;
7410;SDS011;3747;48.628;9.058;2023-10-13T08:16:24;7.43;;;2.93;;
7410;SDS011;3747;48.628;9.058;2023-10-13T08:18:55;7.90;;;2.73;;
7410;SDS011;3747;48.628;9.058;2023-10-13T08:24:16;6.90;;;4.13;;
7410;SDS011;3747;48.628;9.058;2023-10-13T08:26:50;5.67;;;3.00;;
7410;SDS011;3747;48.628;9.058;2023-10-13T08:29:24;7.40;;;3.40;;
7410;SDS011;3747;48.628;9.058;2023-10-13T08:32:08;4.00;;;2.73;;
7410;SDS011;3747;48.628;9.058;2023-10-13T08:34:48;5.27;;;2.53;;
7410;SDS011;3747;48.628;9.058;2023-10-13T08:37:35;6.13;;;3.07;;
7410;SDS011;3747;48.628;9.058;2023-10-13T08:40:21;6.03;;;2.50;;
7410;SDS011;3747;48.628;9.058;2023-10-13T08:43:12;10.47;;;3.40;;
7410;SDS011;3747;48.628;9.058;2023-10-13T08:45:40;4.90;;;3.00;;
7410;SDS011;3747;48.628;9.058;2023-10-13T08:48:23;6.93;;;2.90;;
7410;SDS011;3747;48.628;9.058;2023-10-13T08:50:56;9.23;;;3.80;;
7410;SDS011;3747;48.628;9.058;2023-10-13T08:53:29;7.30;;;3.20;;
7410;SDS011;3747;48.628;9.058;2023-10-13T08:55:58;4.93;;;3.30;;
7410;SDS011;3747;48.628;9.058;2023-10-13T08:58:39;5.57;;;2.80;;
7410;SDS011;3747;48.628;9.058;2023-10-13T09:01:40;9.57;;;2.67;;
7410;SDS011;3747;48.628;9.058;2023-10-13T09:04:13;4.80;;;3.00;;
7410;SDS011;3747;48.628;9.058;2023-10-13T09:06:47;5.90;;;2.80;;
7410;SDS011;3747;48.628;9.058;2023-10-13T09:09:28;6.57;;;3.20;;
7410;SDS011;3747;48.628;9.058;2023-10-13T09:12:01;8.47;;;3.03;;
7410;SDS011;3747;48.628;9.058;2023-10-13T09:14:35;9.60;;;3.30;;
7410;SDS011;3747;48.628;9.058;2023-10-13T09:17:06;6.60;;;2.80;;
7410;SDS011;3747;48.628;9.058;2023-10-13T09:19:50;8.90;;;3.10;;
7410;SDS011;3747;48.628;9.058;2023-10-13T09:22:22;5.73;;;2.97;;
7410;SDS011;3747;48.628;9.058;2023-10-13T09:24:55;8.67;;;2.67;;
7410;SDS011;3747;48.628;9.058;2023-10-13T09:27:39;6.23;;;2.83;;
7410;SDS011;3747;48.628;9.058;2023-10-13T09:30:16;5.70;;;2.60;;
7410;SDS011;3747;48.628;9.058;2023-10-13T09:32:49;5.93;;;3.03;;
7410;SDS011;3747;48.628;9.058;2023-10-13T09:35:35;6.47;;;2.80;;
7410;SDS011;3747;48.628;9.058;2023-10-13T09:38:04;4.30;;;2.80;;
7410;SDS011;3747;48.628;9.058;2023-10-13T09:40:31;5.57;;;2.83;;
7410;SDS011;3747;48.628;9.058;2023-10-13T09:43:03;5.57;;;2.70;;
7410;SDS011;3747;48.628;9.058;2023-10-13T09:45:32;3.73;;;2.40;;
7410;SDS011;3747;48.628;9.058;2023-10-13T09:48:02;6.53;;;2.93;;
7410;SDS011;3747;48.628;9.058;2023-10-13T09:50:35;5.83;;;2.57;;
7410;SDS011;3747;48.628;9.058;2023-10-13T09:53:06;6.93;;;2.90;;
7410;SDS011;3747;48.628;9.058;2023-10-13T09:55:35;6.67;;;2.97;;
7410;SDS011;3747;48.628;9.058;2023-10-13T10:00:54;6.97;;;2.60;;
7410;SDS011;3747;48.628;9.058;2023-10-13T10:03:33;7.00;;;3.27;;
7410;SDS011;3747;48.628;9.058;2023-10-13T10:06:20;14.27;;;3.50;;
7410;SDS011;3747;48.628;9.058;2023-10-13T10:08:53;4.07;;;2.20;;
7410;SDS011;3747;48.628;9.058;2023-10-13T10:14:28;5.60;;;2.43;;
7410;SDS011;3747;48.628;9.058;2023-10-13T10:17:26;4.67;;;2.73;;
7410;SDS011;3747;48.628;9.058;2023-10-13T10:19:59;9.13;;;2.70;;
7410;SDS011;3747;48.628;9.058;2023-10-13T10:22:31;5.87;;;2.53;;
7410;SDS011;3747;48.628;9.058;2023-10-13T10:25:01;7.57;;;2.73;;
7410;SDS011;3747;48.628;9.058;2023-10-13T10:27:56;5.50;;;3.53;;
7410;SDS011;3747;48.628;9.058;2023-10-13T10:30:24;9.87;;;5.30;;
7410;SDS011;3747;48.628;9.058;2023-10-13T10:32:53;6.80;;;3.27;;
7410;SDS011;3747;48.628;9.058;2023-10-13T10:35:25;8.13;;;3.03;;
7410;SDS011;3747;48.628;9.058;2023-10-13T10:37:55;6.83;;;2.50;;
7410;SDS011;3747;48.628;9.058;2023-10-13T10:40:47;8.30;;;2.70;;
7410;SDS011;3747;48.628;9.058;2023-10-13T10:43:17;10.80;;;3.37;;
7410;SDS011;3747;48.628;9.058;2023-10-13T10:45:45;5.30;;;2.50;;
7410;SDS011;3747;48.628;9.058;2023-10-13T10:48:15;4.50;;;2.37;;
7410;SDS011;3747;48.628;9.058;2023-10-13T10:50:52;4.73;;;2.53;;
7410;SDS011;3747;48.628;9.058;2023-10-13T10:53:19;4.70;;;2.70;;
7410;SDS011;3747;48.628;9.058;2023-10-13T10:56:04;10.13;;;2.93;;
7410;SDS011;3747;48.628;9.058;2023-10-13T10:58:33;7.73;;;2.83;;
7410;SDS011;3747;48.628;9.058;2023-10-13T11:01:08;6.20;;;2.57;;
7410;SDS011;3747;48.628;9.058;2023-10-13T11:03:37;6.70;;;2.60;;
7410;SDS011;3747;48.628;9.058;2023-10-13T11:06:12;7.60;;;2.73;;
7410;SDS011;3747;48.628;9.058;2023-10-13T11:08:44;5.17;;;2.27;;
7410;SDS011;3747;48.628;9.058;2023-10-13T11:11:27;11.87;;;2.83;;
7410;SDS011;3747;48.628;9.058;2023-10-13T11:13:55;15.53;;;3.00;;
7410;SDS011;3747;48.628;9.058;2023-10-13T11:16:45;6.50;;;1.90;;
7410;SDS011;3747;48.628;9.058;2023-10-13T11:19:15;8.40;;;2.80;;
7410;SDS011;3747;48.628;9.058;2023-10-13T11:21:46;6.07;;;2.90;;
7410;SDS011;3747;48.628;9.058;2023-10-13T11:24:13;4.87;;;2.47;;
7410;SDS011;3747;48.628;9.058;2023-10-13T11:26:42;4.57;;;2.40;;
7410;SDS011;3747;48.628;9.058;2023-10-13T11:29:14;6.87;;;2.67;;
7410;SDS011;3747;48.628;9.058;2023-10-13T11:34:29;7.33;;;2.40;;
7410;SDS011;3747;48.628;9.058;2023-10-13T11:37:06;5.73;;;2.63;;
7410;SDS011;3747;48.628;9.058;2023-10-13T11:39:46;8.37;;;2.90;;
7410;SDS011;3747;48.628;9.058;2023-10-13T11:42:13;7.20;;;2.47;;
7410;SDS011;3747;48.628;9.058;2023-10-13T11:44:42;7.23;;;2.47;;
7410;SDS011;3747;48.628;9.058;2023-10-13T11:50:12;6.27;;;2.70;;
7410;SDS011;3747;48.628;9.058;2023-10-13T11:52:53;4.53;;;2.80;;
7410;SDS011;3747;48.628;9.058;2023-10-13T11:55:20;5.30;;;2.30;;
7410;SDS011;3747;48.628;9.058;2023-10-13T11:57:48;12.07;;;2.93;;
7410;SDS011;3747;48.628;9.058;2023-10-13T12:00:15;4.73;;;2.90;;
7410;SDS011;3747;48.628;9.058;2023-10-13T12:02:51;7.17;;;2.87;;
7410;SDS011;3747;48.628;9.058;2023-10-13T12:05:35;5.57;;;2.70;;
7410;SDS011;3747;48.628;9.058;2023-10-13T12:08:32;4.57;;;2.47;;
7410;SDS011;3747;48.628;9.058;2023-10-13T12:11:03;5.67;;;3.00;;
7410;SDS011;3747;48.628;9.058;2023-10-13T12:13:50;7.33;;;3.10;;
7410;SDS011;3747;48.628;9.058;2023-10-13T12:16:17;6.67;;;2.80;;
7410;SDS011;3747;48.628;9.058;2023-10-13T12:18:44;6.90;;;3.07;;
7410;SDS011;3747;48.628;9.058;2023-10-13T12:21:18;6.00;;;2.77;;
7410;SDS011;3747;48.628;9.058;2023-10-13T12:24:01;4.97;;;2.83;;
7410;SDS011;3747;48.628;9.058;2023-10-13T12:26:28;4.63;;;2.60;;
7410;SDS011;3747;48.628;9.058;2023-10-13T12:28:58;7.20;;;2.97;;
7410;SDS011;3747;48.628;9.058;2023-10-13T12:31:31;10.27;;;3.40;;
7410;SDS011;3747;48.628;9.058;2023-10-13T12:34:04;6.40;;;3.07;;
7410;SDS011;3747;48.628;9.058;2023-10-13T12:36:39;6.10;;;2.87;;
7410;SDS011;3747;48.628;9.058;2023-10-13T12:39:08;4.17;;;2.90;;
7410;SDS011;3747;48.628;9.058;2023-10-13T12:41:52;6.47;;;2.97;;
7410;SDS011;3747;48.628;9.058;2023-10-13T12:44:36;8.77;;;2.93;;
7410;SDS011;3747;48.628;9.058;2023-10-13T12:47:20;4.87;;;2.70;;
7410;SDS011;3747;48.628;9.058;2023-10-13T12:50:04;7.03;;;2.73;;
7410;SDS011;3747;48.628;9.058;2023-10-13T12:52:39;5.60;;;2.73;;
7410;SDS011;3747;48.628;9.058;2023-10-13T12:55:25;6.23;;;2.60;;
7410;SDS011;3747;48.628;9.058;2023-10-13T12:57:52;11.53;;;3.03;;
7410;SDS011;3747;48.628;9.058;2023-10-13T13:00:17;13.23;;;2.90;;
7410;SDS011;3747;48.628;9.058;2023-10-13T13:02:49;7.87;;;2.87;;
7410;SDS011;3747;48.628;9.058;2023-10-13T13:05:18;8.40;;;2.93;;
7410;SDS011;3747;48.628;9.058;2023-10-13T13:07:48;8.63;;;2.83;;
7410;SDS011;3747;48.628;9.058;2023-10-13T13:10:17;9.77;;;2.70;;
7410;SDS011;3747;48.628;9.058;2023-10-13T13:12:45;6.77;;;2.60;;
7410;SDS011;3747;48.628;9.058;2023-10-13T13:15:12;18.63;;;3.70;;
7410;SDS011;3747;48.628;9.058;2023-10-13T13:17:39;10.57;;;2.70;;
7410;SDS011;3747;48.628;9.058;2023-10-13T13:20:06;4.40;;;2.23;;
7410;SDS011;3747;48.628;9.058;2023-10-13T13:22:36;6.90;;;2.70;;
7410;SDS011;3747;48.628;9.058;2023-10-13T13:25:03;6.57;;;2.77;;
7410;SDS011;3747;48.628;9.058;2023-10-13T13:27:33;8.37;;;3.03;;
7410;SDS011;3747;48.628;9.058;2023-10-13T13:30:03;4.40;;;2.23;;
7410;SDS011;3747;48.628;9.058;2023-10-13T13:32:37;3.80;;;2.73;;
7410;SDS011;3747;48.628;9.058;2023-10-13T13:35:06;4.70;;;2.80;;
7410;SDS011;3747;48.628;9.058;2023-10-13T13:37:34;5.83;;;2.40;;
7410;SDS011;3747;48.628;9.058;2023-10-13T13:40:06;4.83;;;2.90;;
7410;SDS011;3747;48.628;9.058;2023-10-13T13:42:40;3.60;;;2.20;;
7410;SDS011;3747;48.628;9.058;2023-10-13T13:45:12;2.87;;;2.07;;
7410;SDS011;3747;48.628;9.058;2023-10-13T13:47:46;5.10;;;2.37;;
7410;SDS011;3747;48.628;9.058;2023-10-13T13:50:18;4.13;;;2.17;;
7410;SDS011;3747;48.628;9.058;2023-10-13T13:52:49;3.27;;;2.60;;
7410;SDS011;3747;48.628;9.058;2023-10-13T13:55:17;3.43;;;2.20;;
7410;SDS011;3747;48.628;9.058;2023-10-13T13:57:45;3.37;;;2.50;;
7410;SDS011;3747;48.628;9.058;2023-10-13T14:00:13;5.77;;;2.80;;
7410;SDS011;3747;48.628;9.058;2023-10-13T14:02:43;11.43;;;2.80;;
7410;SDS011;3747;48.628;9.058;2023-10-13T14:05:13;13.93;;;2.70;;
7410;SDS011;3747;48.628;9.058;2023-10-13T14:07:41;12.80;;;2.70;;
7410;SDS011;3747;48.628;9.058;2023-10-13T14:10:13;5.40;;;2.50;;
7410;SDS011;3747;48.628;9.058;2023-10-13T14:12:56;2.97;;;2.20;;
7410;SDS011;3747;48.628;9.058;2023-10-13T14:15:32;7.20;;;2.70;;
7410;SDS011;3747;48.628;9.058;2023-10-13T14:18:05;6.50;;;2.13;;
7410;SDS011;3747;48.628;9.058;2023-10-13T14:20:37;9.87;;;2.87;;
7410;SDS011;3747;48.628;9.058;2023-10-13T14:23:05;7.17;;;2.27;;
7410;SDS011;3747;48.628;9.058;2023-10-13T14:25:34;6.43;;;2.50;;
7410;SDS011;3747;48.628;9.058;2023-10-13T14:28:02;8.87;;;2.20;;
7410;SDS011;3747;48.628;9.058;2023-10-13T14:30:30;9.77;;;2.37;;
7410;SDS011;3747;48.628;9.058;2023-10-13T14:32:58;4.17;;;2.07;;
7410;SDS011;3747;48.628;9.058;2023-10-13T14:35:26;3.87;;;1.83;;
7410;SDS011;3747;48.628;9.058;2023-10-13T14:37:52;4.37;;;1.90;;
7410;SDS011;3747;48.628;9.058;2023-10-13T14:40:19;3.43;;;1.90;;
7410;SDS011;3747;48.628;9.058;2023-10-13T14:42:47;3.23;;;2.10;;
7410;SDS011;3747;48.628;9.058;2023-10-13T14:45:26;3.70;;;1.97;;
7410;SDS011;3747;48.628;9.058;2023-10-13T14:47:53;6.67;;;1.80;;
7410;SDS011;3747;48.628;9.058;2023-10-13T14:50:21;4.97;;;2.10;;
7410;SDS011;3747;48.628;9.058;2023-10-13T14:52:49;4.43;;;2.20;;
7410;SDS011;3747;48.628;9.058;2023-10-13T14:55:16;3.70;;;1.83;;
7410;SDS011;3747;48.628;9.058;2023-10-13T14:57:46;3.67;;;1.90;;
7410;SDS011;3747;48.628;9.058;2023-10-13T15:00:15;4.13;;;2.00;;
7410;SDS011;3747;48.628;9.058;2023-10-13T15:02:49;5.47;;;1.93;;
7410;SDS011;3747;48.628;9.058;2023-10-13T15:05:16;6.10;;;2.27;;
7410;SDS011;3747;48.628;9.058;2023-10-13T15:07:44;3.93;;;2.10;;
7410;SDS011;3747;48.628;9.058;2023-10-13T15:10:12;4.37;;;1.73;;
7410;SDS011;3747;48.628;9.058;2023-10-13T15:12:52;5.97;;;2.10;;
7410;SDS011;3747;48.628;9.058;2023-10-13T15:15:18;5.93;;;2.10;;
7410;SDS011;3747;48.628;9.058;2023-10-13T15:17:45;3.40;;;2.03;;
7410;SDS011;3747;48.628;9.058;2023-10-13T15:20:12;3.23;;;2.00;;
7410;SDS011;3747;48.628;9.058;2023-10-13T15:22:54;5.10;;;2.13;;
7410;SDS011;3747;48.628;9.058;2023-10-13T15:25:24;6.13;;;1.93;;
7410;SDS011;3747;48.628;9.058;2023-10-13T15:27:56;4.67;;;2.13;;
7410;SDS011;3747;48.628;9.058;2023-10-13T15:30:27;3.10;;;2.07;;
7410;SDS011;3747;48.628;9.058;2023-10-13T15:33:07;3.97;;;1.97;;
7410;SDS011;3747;48.628;9.058;2023-10-13T15:35:34;3.50;;;2.07;;
7410;SDS011;3747;48.628;9.058;2023-10-13T15:38:05;7.57;;;1.97;;
7410;SDS011;3747;48.628;9.058;2023-10-13T15:40:32;5.33;;;1.80;;
7410;SDS011;3747;48.628;9.058;2023-10-13T15:42:58;5.83;;;2.10;;
7410;SDS011;3747;48.628;9.058;2023-10-13T15:45:25;4.70;;;2.13;;
7410;SDS011;3747;48.628;9.058;2023-10-13T15:48:04;3.97;;;1.90;;
7410;SDS011;3747;48.628;9.058;2023-10-13T15:50:35;4.43;;;1.73;;
7410;SDS011;3747;48.628;9.058;2023-10-13T15:53:05;4.17;;;2.33;;
7410;SDS011;3747;48.628;9.058;2023-10-13T15:55:34;2.03;;;1.83;;
7410;SDS011;3747;48.628;9.058;2023-10-13T15:58:01;4.87;;;1.80;;
7410;SDS011;3747;48.628;9.058;2023-10-13T16:00:27;4.10;;;2.10;;
7410;SDS011;3747;48.628;9.058;2023-10-13T16:02:56;7.27;;;2.60;;
7410;SDS011;3747;48.628;9.058;2023-10-13T16:05:38;5.67;;;1.90;;
7410;SDS011;3747;48.628;9.058;2023-10-13T16:08:08;2.00;;;1.73;;
7410;SDS011;3747;48.628;9.058;2023-10-13T16:10:37;2.93;;;2.20;;
7410;SDS011;3747;48.628;9.058;2023-10-13T16:13:04;2.90;;;2.30;;
7410;SDS011;3747;48.628;9.058;2023-10-13T16:15:35;5.97;;;2.43;;